Main page
METAR-TAF:

METAR-TAF

Airports :

Kushok Bakula Rimpochee Airport

Leh, India

latitude: 34-08-09N, longitude: 077-32-47E, elevation: 3256 m

METAR: missing

Time: 03:40 (22:10 UTC)

Forecast

The report was made 12 hours and 40 minutes ago, at 09:30 UTC
Forecast valid from 22 at 18 UTC to 23 at 12 UTC
Wind 10 kt from the West
Visibility: 6000 m
Few clouds at a height of 5000 ft
Scattered clouds at a height of 7000 ft
Broken clouds at a height of 10000 ft
Temporary
from 22 at 19 UTC to 23 at 02 UTC
Scattered clouds at a height of 4000 ft
Broken clouds at a height of 9000 ft
light snow

TAF: VILH 220930Z 2218/2312 27010KT 6000 FEW050 SCT070 BKN100 TEMPO 2219/2302 -SN SCT040 BKN090

Weather observations and forecasts of more than 4000 airports (METAR and TAF reports).

The available stations are represented by yellow and red dots on the map.

Hover mouse over dot to see the name of the station.

Then click to see weather observations and forecasts.

To change the map : click on the green buttons with a black cross to zoom in, on the green button with a dash to zoom out, or on the green arrows for adjacent maps.


METAR-TAF: